sensor_id;sensor_type;location;lat;lon;timestamp;pressure;altitude;pressure_sealevel;temperature;humidity
62333;BME280;48624;49.812;8.562;2022-11-15T00:00:52;100253.84;;;11.99;80.05
62333;BME280;48624;49.812;8.562;2022-11-15T00:03:22;100246.25;;;11.94;79.83
62333;BME280;48624;49.812;8.562;2022-11-15T00:05:48;100239.97;;;11.96;79.94
62333;BME280;48624;49.812;8.562;2022-11-15T00:08:13;100239.44;;;11.79;80.33
62333;BME280;48624;49.812;8.562;2022-11-15T00:10:39;100249.25;;;11.90;80.38
62333;BME280;48624;49.812;8.562;2022-11-15T00:13:09;100252.38;;;11.84;80.35
62333;BME280;48624;49.812;8.562;2022-11-15T00:15:39;100244.97;;;11.64;80.37
62333;BME280;48624;49.812;8.562;2022-11-15T00:18:05;100243.06;;;11.78;80.24
62333;BME280;48624;49.812;8.562;2022-11-15T00:20:33;100255.06;;;11.95;80.11
62333;BME280;48624;49.812;8.562;2022-11-15T00:22:58;100250.47;;;11.86;80.08
62333;BME280;48624;49.812;8.562;2022-11-15T00:25:23;100245.88;;;11.99;79.58
62333;BME280;48624;49.812;8.562;2022-11-15T00:27:49;100235.25;;;11.88;80.13
62333;BME280;48624;49.812;8.562;2022-11-15T00:30:14;100239.97;;;11.84;79.84
62333;BME280;48624;49.812;8.562;2022-11-15T00:32:40;100245.00;;;11.76;80.43
62333;BME280;48624;49.812;8.562;2022-11-15T00:35:05;100249.09;;;11.80;80.72
62333;BME280;48624;49.812;8.562;2022-11-15T00:37:30;100239.09;;;11.84;80.40
62333;BME280;48624;49.812;8.562;2022-11-15T00:39:56;100240.56;;;11.76;80.67
62333;BME280;48624;49.812;8.562;2022-11-15T00:42:21;100229.44;;;11.71;80.72
62333;BME280;48624;49.812;8.562;2022-11-15T00:44:46;100238.28;;;11.83;80.26
62333;BME280;48624;49.812;8.562;2022-11-15T00:47:12;100224.63;;;11.88;80.52
62333;BME280;48624;49.812;8.562;2022-11-15T00:49:37;100234.13;;;11.79;80.34
62333;BME280;48624;49.812;8.562;2022-11-15T00:52:02;100230.41;;;11.93;80.04
62333;BME280;48624;49.812;8.562;2022-11-15T00:54:28;100228.38;;;11.85;80.46
62333;BME280;48624;49.812;8.562;2022-11-15T00:56:53;100227.16;;;11.78;81.05
62333;BME280;48624;49.812;8.562;2022-11-15T00:59:18;100225.81;;;11.84;80.73
62333;BME280;48624;49.812;8.562;2022-11-15T01:01:43;100224.59;;;11.65;81.67
62333;BME280;48624;49.812;8.562;2022-11-15T01:04:09;100217.38;;;11.78;80.90
62333;BME280;48624;49.812;8.562;2022-11-15T01:06:34;100211.84;;;11.82;81.02
62333;BME280;48624;49.812;8.562;2022-11-15T01:08:59;100205.19;;;11.76;80.94
62333;BME280;48624;49.812;8.562;2022-11-15T01:11:25;100206.00;;;11.65;80.88
62333;BME280;48624;49.812;8.562;2022-11-15T01:13:50;100207.13;;;11.74;80.45
62333;BME280;48624;49.812;8.562;2022-11-15T01:16:17;100198.31;;;11.73;80.41
62333;BME280;48624;49.812;8.562;2022-11-15T01:18:44;100203.75;;;11.83;80.03
62333;BME280;48624;49.812;8.562;2022-11-15T01:21:13;100197.84;;;11.79;80.16
62333;BME280;48624;49.812;8.562;2022-11-15T01:23:39;100203.03;;;11.92;79.70
62333;BME280;48624;49.812;8.562;2022-11-15T01:26:07;100198.09;;;11.76;80.12
62333;BME280;48624;49.812;8.562;2022-11-15T01:28:34;100198.44;;;11.83;79.95
62333;BME280;48624;49.812;8.562;2022-11-15T01:31:01;100195.28;;;11.78;79.84
62333;BME280;48624;49.812;8.562;2022-11-15T01:33:28;100196.53;;;11.85;79.59
62333;BME280;48624;49.812;8.562;2022-11-15T01:35:54;100204.22;;;11.77;79.60
62333;BME280;48624;49.812;8.562;2022-11-15T01:38:20;100200.13;;;11.84;79.65
62333;BME280;48624;49.812;8.562;2022-11-15T01:40:45;100204.69;;;11.71;80.00
62333;BME280;48624;49.812;8.562;2022-11-15T01:43:24;100200.34;;;11.70;80.08
62333;BME280;48624;49.812;8.562;2022-11-15T01:46:02;100195.19;;;11.68;80.79
62333;BME280;48624;49.812;8.562;2022-11-15T01:48:32;100198.19;;;11.75;80.55
62333;BME280;48624;49.812;8.562;2022-11-15T01:51:01;100196.34;;;11.64;81.04
62333;BME280;48624;49.812;8.562;2022-11-15T01:53:28;100197.84;;;11.68;81.43
62333;BME280;48624;49.812;8.562;2022-11-15T01:55:55;100197.94;;;11.78;81.18
62333;BME280;48624;49.812;8.562;2022-11-15T01:58:20;100201.94;;;11.72;81.56
62333;BME280;48624;49.812;8.562;2022-11-15T02:00:46;100195.91;;;11.82;81.35
62333;BME280;48624;49.812;8.562;2022-11-15T02:03:13;100204.38;;;11.87;80.86
62333;BME280;48624;49.812;8.562;2022-11-15T02:05:39;100193.63;;;11.88;81.03
62333;BME280;48624;49.812;8.562;2022-11-15T02:08:05;100188.31;;;11.77;81.51
62333;BME280;48624;49.812;8.562;2022-11-15T02:10:31;100182.38;;;11.73;82.13
62333;BME280;48624;49.812;8.562;2022-11-15T02:12:59;100172.13;;;11.69;82.48
62333;BME280;48624;49.812;8.562;2022-11-15T02:15:30;100164.41;;;11.65;82.43
62333;BME280;48624;49.812;8.562;2022-11-15T02:18:20;100171.03;;;11.60;82.13
62333;BME280;48624;49.812;8.562;2022-11-15T02:21:20;100166.28;;;11.52;82.65
62333;BME280;48624;49.812;8.562;2022-11-15T02:24:13;100160.97;;;11.41;83.07
62333;BME280;48624;49.812;8.562;2022-11-15T02:29:20;100157.75;;;11.48;82.17
62333;BME280;48624;49.812;8.562;2022-11-15T02:31:56;100159.91;;;11.43;81.71
62333;BME280;48624;49.812;8.562;2022-11-15T02:34:35;100156.09;;;11.23;83.33
62333;BME280;48624;49.812;8.562;2022-11-15T02:37:08;100155.63;;;11.18;83.61
62333;BME280;48624;49.812;8.562;2022-11-15T02:42:11;100150.28;;;11.06;83.42
62333;BME280;48624;49.812;8.562;2022-11-15T02:44:58;100141.00;;;11.01;84.28
62333;BME280;48624;49.812;8.562;2022-11-15T02:47:28;100143.75;;;10.99;83.78
62333;BME280;48624;49.812;8.562;2022-11-15T02:50:07;100147.47;;;10.96;83.91
62333;BME280;48624;49.812;8.562;2022-11-15T02:52:34;100148.47;;;10.82;85.37
62333;BME280;48624;49.812;8.562;2022-11-15T02:55:00;100140.16;;;10.51;87.20
62333;BME280;48624;49.812;8.562;2022-11-15T02:57:51;100139.13;;;10.65;85.89
62333;BME280;48624;49.812;8.562;2022-11-15T03:00:21;100129.88;;;10.71;86.06
62333;BME280;48624;49.812;8.562;2022-11-15T03:03:07;100133.44;;;10.59;86.25
62333;BME280;48624;49.812;8.562;2022-11-15T03:05:51;100124.59;;;10.71;86.12
62333;BME280;48624;49.812;8.562;2022-11-15T03:08:27;100115.09;;;10.80;85.65
62333;BME280;48624;49.812;8.562;2022-11-15T03:11:13;100112.88;;;10.87;85.79
62333;BME280;48624;49.812;8.562;2022-11-15T03:14:08;100112.00;;;10.86;85.00
62333;BME280;48624;49.812;8.562;2022-11-15T03:16:52;100110.97;;;11.00;84.76
62333;BME280;48624;49.812;8.562;2022-11-15T03:19:30;100116.66;;;11.07;84.68
62333;BME280;48624;49.812;8.562;2022-11-15T03:21:59;100127.75;;;11.12;84.48
62333;BME280;48624;49.812;8.562;2022-11-15T03:24:26;100133.44;;;11.19;84.63
62333;BME280;48624;49.812;8.562;2022-11-15T03:26:55;100129.13;;;11.29;84.40
62333;BME280;48624;49.812;8.562;2022-11-15T03:29:26;100124.34;;;11.34;84.04
62333;BME280;48624;49.812;8.562;2022-11-15T03:32:00;100117.91;;;11.37;84.20
62333;BME280;48624;49.812;8.562;2022-11-15T03:34:32;100133.03;;;11.48;83.31
62333;BME280;48624;49.812;8.562;2022-11-15T03:36:59;100127.25;;;11.54;83.04
62333;BME280;48624;49.812;8.562;2022-11-15T03:39:25;100133.88;;;11.48;83.14
62333;BME280;48624;49.812;8.562;2022-11-15T03:41:57;100126.50;;;11.52;83.20
62333;BME280;48624;49.812;8.562;2022-11-15T03:44:43;100126.28;;;11.55;82.59
62333;BME280;48624;49.812;8.562;2022-11-15T03:47:19;100129.56;;;11.59;83.08
62333;BME280;48624;49.812;8.562;2022-11-15T03:49:51;100130.88;;;11.53;83.60
62333;BME280;48624;49.812;8.562;2022-11-15T03:52:19;100127.00;;;11.57;83.31
62333;BME280;48624;49.812;8.562;2022-11-15T03:54:49;100115.78;;;11.42;84.38
62333;BME280;48624;49.812;8.562;2022-11-15T03:57:15;100121.19;;;11.41;84.55
62333;BME280;48624;49.812;8.562;2022-11-15T03:59:40;100120.34;;;11.40;85.20
62333;BME280;48624;49.812;8.562;2022-11-15T04:02:06;100119.75;;;11.36;85.26
62333;BME280;48624;49.812;8.562;2022-11-15T04:04:33;100127.44;;;11.28;86.31
62333;BME280;48624;49.812;8.562;2022-11-15T04:06:58;100128.78;;;11.34;85.57
62333;BME280;48624;49.812;8.562;2022-11-15T04:09:23;100131.31;;;11.35;85.69
62333;BME280;48624;49.812;8.562;2022-11-15T04:11:49;100133.00;;;11.25;85.57
62333;BME280;48624;49.812;8.562;2022-11-15T04:14:14;100133.47;;;11.30;85.61
62333;BME280;48624;49.812;8.562;2022-11-15T04:16:39;100137.09;;;11.29;85.81
62333;BME280;48624;49.812;8.562;2022-11-15T04:19:04;100130.19;;;11.27;86.06
62333;BME280;48624;49.812;8.562;2022-11-15T04:21:48;100123.94;;;11.28;86.01
62333;BME280;48624;49.812;8.562;2022-11-15T04:24:32;100127.44;;;11.28;85.50
62333;BME280;48624;49.812;8.562;2022-11-15T04:26:58;100132.63;;;11.30;85.30
62333;BME280;48624;49.812;8.562;2022-11-15T04:29:24;100129.72;;;11.21;86.35
62333;BME280;48624;49.812;8.562;2022-11-15T04:32:03;100135.63;;;11.25;85.94
62333;BME280;48624;49.812;8.562;2022-11-15T04:34:28;100130.72;;;11.32;85.03
62333;BME280;48624;49.812;8.562;2022-11-15T04:36:54;100128.78;;;11.34;85.01
62333;BME280;48624;49.812;8.562;2022-11-15T04:39:38;100127.53;;;11.27;85.50
62333;BME280;48624;49.812;8.562;2022-11-15T04:42:04;100130.19;;;11.27;85.64
62333;BME280;48624;49.812;8.562;2022-11-15T04:44:29;100129.22;;;11.28;85.32
62333;BME280;48624;49.812;8.562;2022-11-15T04:46:54;100127.09;;;11.33;85.67
62333;BME280;48624;49.812;8.562;2022-11-15T04:49:20;100132.75;;;11.28;85.91
62333;BME280;48624;49.812;8.562;2022-11-15T04:51:45;100124.28;;;11.23;85.90
62333;BME280;48624;49.812;8.562;2022-11-15T04:54:10;100117.19;;;11.23;86.77
62333;BME280;48624;49.812;8.562;2022-11-15T04:56:36;100119.59;;;11.27;86.40
62333;BME280;48624;49.812;8.562;2022-11-15T04:59:01;100118.97;;;11.23;86.38
62333;BME280;48624;49.812;8.562;2022-11-15T05:01:26;100121.06;;;11.31;86.12
62333;BME280;48624;49.812;8.562;2022-11-15T05:03:52;100120.44;;;11.27;86.24
62333;BME280;48624;49.812;8.562;2022-11-15T05:06:36;100131.50;;;11.21;86.85
62333;BME280;48624;49.812;8.562;2022-11-15T05:09:01;100119.47;;;11.28;85.80
62333;BME280;48624;49.812;8.562;2022-11-15T05:11:27;100112.47;;;11.16;86.80
62333;BME280;48624;49.812;8.562;2022-11-15T05:13:52;100113.59;;;10.89;89.05
62333;BME280;48624;49.812;8.562;2022-11-15T05:16:17;100115.19;;;11.03;88.13
62333;BME280;48624;49.812;8.562;2022-11-15T05:18:43;100109.03;;;11.02;88.73
62333;BME280;48624;49.812;8.562;2022-11-15T05:21:11;100105.31;;;11.05;88.98
62333;BME280;48624;49.812;8.562;2022-11-15T05:23:36;100104.16;;;10.85;90.91
62333;BME280;48624;49.812;8.562;2022-11-15T05:26:03;100092.56;;;10.74;92.42
62333;BME280;48624;49.812;8.562;2022-11-15T05:28:29;100094.19;;;10.88;91.13
62333;BME280;48624;49.812;8.562;2022-11-15T05:31:05;100099.00;;;10.83;91.04
62333;BME280;48624;49.812;8.562;2022-11-15T05:33:32;100103.97;;;10.99;90.89
62333;BME280;48624;49.812;8.562;2022-11-15T05:36:03;100096.84;;;11.00;91.73
62333;BME280;48624;49.812;8.562;2022-11-15T05:38:29;100095.03;;;10.89;92.55
62333;BME280;48624;49.812;8.562;2022-11-15T05:40:55;100099.50;;;11.00;91.39
62333;BME280;48624;49.812;8.562;2022-11-15T05:43:21;100099.78;;;11.08;90.93
62333;BME280;48624;49.812;8.562;2022-11-15T05:45:46;100096.84;;;11.00;92.09
62333;BME280;48624;49.812;8.562;2022-11-15T05:48:13;100077.03;;;10.81;93.84
62333;BME280;48624;49.812;8.562;2022-11-15T05:50:41;100071.44;;;10.97;91.91
62333;BME280;48624;49.812;8.562;2022-11-15T05:53:08;100078.19;;;11.01;91.29
62333;BME280;48624;49.812;8.562;2022-11-15T05:55:38;100075.91;;;11.08;90.91
62333;BME280;48624;49.812;8.562;2022-11-15T05:58:04;100080.16;;;11.10;91.09
62333;BME280;48624;49.812;8.562;2022-11-15T06:00:29;100072.19;;;11.10;90.97
62333;BME280;48624;49.812;8.562;2022-11-15T06:02:54;100085.34;;;11.12;91.25
62333;BME280;48624;49.812;8.562;2022-11-15T06:05:19;100079.31;;;11.10;90.91
62333;BME280;48624;49.812;8.562;2022-11-15T06:07:45;100085.72;;;11.19;90.23
62333;BME280;48624;49.812;8.562;2022-11-15T06:10:10;100089.94;;;11.21;90.05
62333;BME280;48624;49.812;8.562;2022-11-15T06:12:35;100090.06;;;11.20;90.11
62333;BME280;48624;49.812;8.562;2022-11-15T06:15:01;100088.38;;;11.19;89.80
62333;BME280;48624;49.812;8.562;2022-11-15T06:17:26;100091.38;;;11.26;89.63
62333;BME280;48624;49.812;8.562;2022-11-15T06:19:52;100082.72;;;11.23;89.83
62333;BME280;48624;49.812;8.562;2022-11-15T06:22:17;100080.78;;;11.26;89.77
62333;BME280;48624;49.812;8.562;2022-11-15T06:24:42;100076.94;;;11.30;89.47
62333;BME280;48624;49.812;8.562;2022-11-15T06:27:10;100077.78;;;11.30;89.12
62333;BME280;48624;49.812;8.562;2022-11-15T06:29:35;100083.69;;;11.34;88.71
62333;BME280;48624;49.812;8.562;2022-11-15T06:32:00;100091.66;;;11.34;88.75
62333;BME280;48624;49.812;8.562;2022-11-15T06:34:26;100088.88;;;11.24;88.87
62333;BME280;48624;49.812;8.562;2022-11-15T06:36:51;100087.84;;;11.14;89.63
62333;BME280;48624;49.812;8.562;2022-11-15T06:39:16;100095.09;;;11.12;89.89
62333;BME280;48624;49.812;8.562;2022-11-15T06:41:42;100099.41;;;11.01;90.13
62333;BME280;48624;49.812;8.562;2022-11-15T06:44:07;100095.78;;;11.02;89.64
62333;BME280;48624;49.812;8.562;2022-11-15T06:46:32;100100.25;;;11.02;89.34
62333;BME280;48624;49.812;8.562;2022-11-15T06:48:57;100100.13;;;11.03;88.87
62333;BME280;48624;49.812;8.562;2022-11-15T06:51:23;100097.63;;;11.02;88.63
62333;BME280;48624;49.812;8.562;2022-11-15T06:53:48;100100.19;;;10.90;89.91
62333;BME280;48624;49.812;8.562;2022-11-15T06:56:13;100099.34;;;10.78;90.51
62333;BME280;48624;49.812;8.562;2022-11-15T06:58:39;100111.16;;;10.86;90.29
62333;BME280;48624;49.812;8.562;2022-11-15T07:01:07;100096.34;;;10.83;90.56
62333;BME280;48624;49.812;8.562;2022-11-15T07:03:39;100092.84;;;10.82;90.84
62333;BME280;48624;49.812;8.562;2022-11-15T07:06:05;100096.38;;;10.94;90.38
62333;BME280;48624;49.812;8.562;2022-11-15T07:08:31;100092.22;;;10.79;91.81
62333;BME280;48624;49.812;8.562;2022-11-15T07:11:04;100091.53;;;10.88;91.49
62333;BME280;48624;49.812;8.562;2022-11-15T07:13:31;100093.00;;;10.92;91.93
62333;BME280;48624;49.812;8.562;2022-11-15T07:16:06;100091.44;;;11.01;91.36
62333;BME280;48624;49.812;8.562;2022-11-15T07:18:39;100097.97;;;10.97;91.66
62333;BME280;48624;49.812;8.562;2022-11-15T07:21:09;100094.63;;;11.06;91.18
62333;BME280;48624;49.812;8.562;2022-11-15T07:23:39;100089.56;;;11.15;90.92
62333;BME280;48624;49.812;8.562;2022-11-15T07:26:05;100087.41;;;11.20;90.98
62333;BME280;48624;49.812;8.562;2022-11-15T07:28:30;100090.22;;;11.30;90.32
62333;BME280;48624;49.812;8.562;2022-11-15T07:30:56;100086.09;;;11.26;90.04
62333;BME280;48624;49.812;8.562;2022-11-15T07:33:21;100086.09;;;11.26;90.15
62333;BME280;48624;49.812;8.562;2022-11-15T07:35:47;100087.91;;;11.36;89.69
62333;BME280;48624;49.812;8.562;2022-11-15T07:38:16;100078.38;;;11.34;89.65
62333;BME280;48624;49.812;8.562;2022-11-15T07:40:45;100078.63;;;11.19;89.55
62333;BME280;48624;49.812;8.562;2022-11-15T07:43:10;100080.69;;;11.38;88.83
62333;BME280;48624;49.812;8.562;2022-11-15T07:45:40;100080.69;;;11.50;88.62
62333;BME280;48624;49.812;8.562;2022-11-15T07:48:06;100088.78;;;11.48;88.85
62333;BME280;48624;49.812;8.562;2022-11-15T07:50:32;100088.66;;;11.61;88.25
62333;BME280;48624;49.812;8.562;2022-11-15T07:52:59;100091.78;;;11.78;87.25
62333;BME280;48624;49.812;8.562;2022-11-15T07:55:26;100088.56;;;11.86;86.91
62333;BME280;48624;49.812;8.562;2022-11-15T07:57:52;100098.69;;;11.80;86.97
62333;BME280;48624;49.812;8.562;2022-11-15T08:00:18;100093.88;;;11.86;86.92
62333;BME280;48624;49.812;8.562;2022-11-15T08:02:44;100092.03;;;11.75;87.78
62333;BME280;48624;49.812;8.562;2022-11-15T08:05:09;100098.56;;;11.82;87.39
62333;BME280;48624;49.812;8.562;2022-11-15T08:07:35;100097.59;;;11.94;86.43
62333;BME280;48624;49.812;8.562;2022-11-15T08:10:01;100090.84;;;11.90;87.08
62333;BME280;48624;49.812;8.562;2022-11-15T08:12:29;100094.78;;;11.85;87.18
62333;BME280;48624;49.812;8.562;2022-11-15T08:14:56;100107.47;;;11.70;88.20
62333;BME280;48624;49.812;8.562;2022-11-15T08:17:25;100095.31;;;11.78;87.99
62333;BME280;48624;49.812;8.562;2022-11-15T08:19:50;100097.47;;;11.73;87.89
62333;BME280;48624;49.812;8.562;2022-11-15T08:22:16;100094.47;;;12.12;86.58
62333;BME280;48624;49.812;8.562;2022-11-15T08:24:41;100091.09;;;12.10;86.54
62333;BME280;48624;49.812;8.562;2022-11-15T08:27:07;100095.91;;;11.82;88.47
62333;BME280;48624;49.812;8.562;2022-11-15T08:29:41;100095.19;;;12.03;86.79
62333;BME280;48624;49.812;8.562;2022-11-15T08:32:07;100088.78;;;11.83;89.64
62333;BME280;48624;49.812;8.562;2022-11-15T08:34:32;100091.19;;;11.97;88.69
62333;BME280;48624;49.812;8.562;2022-11-15T08:36:58;100086.25;;;11.92;89.22
62333;BME280;48624;49.812;8.562;2022-11-15T08:39:23;100086.00;;;11.96;88.88
62333;BME280;48624;49.812;8.562;2022-11-15T08:41:48;100085.66;;;11.77;90.15
62333;BME280;48624;49.812;8.562;2022-11-15T08:44:13;100088.66;;;11.84;90.34
62333;BME280;48624;49.812;8.562;2022-11-15T08:46:39;100087.44;;;11.88;90.63
62333;BME280;48624;49.812;8.562;2022-11-15T08:49:04;100084.41;;;11.93;89.85
62333;BME280;48624;49.812;8.562;2022-11-15T08:51:30;100082.28;;;11.87;91.25
62333;BME280;48624;49.812;8.562;2022-11-15T08:53:55;100092.38;;;11.93;90.93
62333;BME280;48624;49.812;8.562;2022-11-15T08:56:20;100082.00;;;12.01;90.14
62333;BME280;48624;49.812;8.562;2022-11-15T08:58:46;100084.56;;;12.14;89.56
62333;BME280;48624;49.812;8.562;2022-11-15T09:01:17;100086.69;;;12.32;88.47
62333;BME280;48624;49.812;8.562;2022-11-15T09:03:43;100080.16;;;12.36;88.08
62333;BME280;48624;49.812;8.562;2022-11-15T09:06:09;100084.63;;;12.35;88.12
62333;BME280;48624;49.812;8.562;2022-11-15T09:08:34;100084.97;;;12.42;88.15
62333;BME280;48624;49.812;8.562;2022-11-15T09:11:03;100075.31;;;12.41;87.25
62333;BME280;48624;49.812;8.562;2022-11-15T09:13:29;100070.72;;;12.43;87.60
62333;BME280;48624;49.812;8.562;2022-11-15T09:15:57;100065.50;;;12.53;86.77
62333;BME280;48624;49.812;8.562;2022-11-15T09:18:23;100065.34;;;12.55;86.78
62333;BME280;48624;49.812;8.562;2022-11-15T09:20:49;100070.72;;;12.43;86.46
62333;BME280;48624;49.812;8.562;2022-11-15T09:23:14;100071.78;;;12.52;86.44
62333;BME280;48624;49.812;8.562;2022-11-15T09:25:39;100063.81;;;12.52;86.85
62333;BME280;48624;49.812;8.562;2022-11-15T09:28:06;100066.63;;;12.39;86.76
62333;BME280;48624;49.812;8.562;2022-11-15T09:30:32;100062.75;;;12.43;88.19
62333;BME280;48624;49.812;8.562;2022-11-15T09:32:57;100067.09;;;12.44;87.94
62333;BME280;48624;49.812;8.562;2022-11-15T09:35:23;100071.78;;;12.52;87.20
62333;BME280;48624;49.812;8.562;2022-11-15T09:37:48;100068.38;;;12.61;87.43
62333;BME280;48624;49.812;8.562;2022-11-15T09:40:14;100066.03;;;12.68;87.36
62333;BME280;48624;49.812;8.562;2022-11-15T09:53:54;100066.97;;;13.00;85.87
62333;BME280;48624;49.812;8.562;2022-11-15T09:56:25;100066.31;;;12.86;87.10
62333;BME280;48624;49.812;8.562;2022-11-15T10:01:45;100061.59;;;13.11;86.41
62333;BME280;48624;49.812;8.562;2022-11-15T10:04:15;100062.09;;;13.05;86.42
62333;BME280;48624;49.812;8.562;2022-11-15T10:07:00;100057.22;;;12.89;86.32
62333;BME280;48624;49.812;8.562;2022-11-15T10:09:42;100056.19;;;13.01;86.24
62333;BME280;48624;49.812;8.562;2022-11-15T10:12:09;100051.72;;;12.81;86.86
62333;BME280;48624;49.812;8.562;2022-11-15T10:14:36;100046.44;;;13.12;86.09
62333;BME280;48624;49.812;8.562;2022-11-15T10:17:18;100039.38;;;13.22;85.29
62333;BME280;48624;49.812;8.562;2022-11-15T10:24:50;100033.53;;;13.28;85.36
62333;BME280;48624;49.812;8.562;2022-11-15T10:27:18;100034.63;;;13.47;85.42
62333;BME280;48624;49.812;8.562;2022-11-15T10:29:49;100026.56;;;13.37;86.12
62333;BME280;48624;49.812;8.562;2022-11-15T10:32:19;100025.34;;;13.41;86.19
62333;BME280;48624;49.812;8.562;2022-11-15T10:34:47;100022.66;;;13.63;84.57
62333;BME280;48624;49.812;8.562;2022-11-15T10:37:13;100012.88;;;13.83;83.26
62333;BME280;48624;49.812;8.562;2022-11-15T10:39:38;100014.31;;;13.46;84.43
62333;BME280;48624;49.812;8.562;2022-11-15T10:42:18;100005.44;;;13.36;84.13
62333;BME280;48624;49.812;8.562;2022-11-15T10:44:50;99998.59;;;13.43;84.84
62333;BME280;48624;49.812;8.562;2022-11-15T10:47:22;100006.00;;;13.39;84.33
62333;BME280;48624;49.812;8.562;2022-11-15T10:50:01;99999.91;;;13.49;84.05
62333;BME280;48624;49.812;8.562;2022-11-15T10:52:28;99999.22;;;13.56;84.61
62333;BME280;48624;49.812;8.562;2022-11-15T10:55:05;99997.44;;;13.67;84.30
62333;BME280;48624;49.812;8.562;2022-11-15T10:57:36;99987.91;;;13.64;84.56
62333;BME280;48624;49.812;8.562;2022-11-15T11:00:06;99978.81;;;13.67;84.58
62333;BME280;48624;49.812;8.562;2022-11-15T11:02:34;99978.38;;;13.62;84.50
62333;BME280;48624;49.812;8.562;2022-11-15T11:05:02;99979.66;;;13.77;84.23
62333;BME280;48624;49.812;8.562;2022-11-15T11:07:30;99978.44;;;13.81;84.59
62333;BME280;48624;49.812;8.562;2022-11-15T11:09:58;99971.09;;;13.73;83.63
62333;BME280;48624;49.812;8.562;2022-11-15T11:12:31;99967.50;;;13.84;83.64
62333;BME280;48624;49.812;8.562;2022-11-15T11:14:58;99963.56;;;13.79;83.67
62333;BME280;48624;49.812;8.562;2022-11-15T11:23:26;99943.13;;;13.89;84.17
62333;BME280;48624;49.812;8.562;2022-11-15T11:28:48;99931.75;;;14.17;82.01
62333;BME280;48624;49.812;8.562;2022-11-15T11:31:51;99927.44;;;14.06;82.09
62333;BME280;48624;49.812;8.562;2022-11-15T11:37:30;99924.50;;;14.19;83.36
62333;BME280;48624;49.812;8.562;2022-11-15T11:40:12;99921.09;;;14.46;82.84
62333;BME280;48624;49.812;8.562;2022-11-15T11:42:46;99921.63;;;14.60;82.61
62333;BME280;48624;49.812;8.562;2022-11-15T11:48:01;99908.72;;;14.65;80.62
62333;BME280;48624;49.812;8.562;2022-11-15T11:50:30;99903.78;;;14.70;81.00
62333;BME280;48624;49.812;8.562;2022-11-15T11:53:01;99902.94;;;14.79;79.83
62333;BME280;48624;49.812;8.562;2022-11-15T11:55:33;99909.09;;;14.90;79.89
62333;BME280;48624;49.812;8.562;2022-11-15T12:00:51;99892.72;;;15.03;79.10
62333;BME280;48624;49.812;8.562;2022-11-15T12:03:34;99884.00;;;14.73;78.47
62333;BME280;48624;49.812;8.562;2022-11-15T12:12:15;99864.78;;;15.07;76.94
62333;BME280;48624;49.812;8.562;2022-11-15T12:14:52;99866.06;;;14.55;78.22
62333;BME280;48624;49.812;8.562;2022-11-15T12:17:23;99863.78;;;14.70;77.01
62333;BME280;48624;49.812;8.562;2022-11-15T12:19:49;99862.94;;;14.79;77.19
62333;BME280;48624;49.812;8.562;2022-11-15T12:22:25;99862.69;;;14.73;77.45
62333;BME280;48624;49.812;8.562;2022-11-15T12:24:56;99846.84;;;14.61;77.46
62333;BME280;48624;49.812;8.562;2022-11-15T12:27:41;99846.94;;;14.79;76.72
62333;BME280;48624;49.812;8.562;2022-11-15T12:30:19;99840.78;;;14.69;76.95
62333;BME280;48624;49.812;8.562;2022-11-15T12:32:55;99829.56;;;14.65;77.35
62333;BME280;48624;49.812;8.562;2022-11-15T12:35:42;99834.91;;;14.08;79.08
62333;BME280;48624;49.812;8.562;2022-11-15T12:38:12;99835.72;;;14.28;79.23
62333;BME280;48624;49.812;8.562;2022-11-15T12:40:39;99837.19;;;14.50;78.38
62333;BME280;48624;49.812;8.562;2022-11-15T12:43:41;99834.88;;;14.27;79.68
62333;BME280;48624;49.812;8.562;2022-11-15T12:46:21;99841.19;;;14.26;78.60
62333;BME280;48624;49.812;8.562;2022-11-15T12:48:50;99834.75;;;14.19;80.07
62333;BME280;48624;49.812;8.562;2022-11-15T12:51:19;99832.34;;;14.36;80.12
62333;BME280;48624;49.812;8.562;2022-11-15T12:53:45;99828.84;;;14.25;80.34
62333;BME280;48624;49.812;8.562;2022-11-15T12:58:44;99832.03;;;14.49;79.81
62333;BME280;48624;49.812;8.562;2022-11-15T13:11:55;99818.44;;;14.70;78.18
62333;BME280;48624;49.812;8.562;2022-11-15T13:14:55;99801.03;;;14.48;77.70
62333;BME280;48624;49.812;8.562;2022-11-15T13:17:23;99805.28;;;14.68;77.42
62333;BME280;48624;49.812;8.562;2022-11-15T13:19:57;99804.50;;;14.48;78.45
62333;BME280;48624;49.812;8.562;2022-11-15T13:22:24;99793.75;;;14.40;78.60
62333;BME280;48624;49.812;8.562;2022-11-15T13:25:20;99788.63;;;14.56;78.00
62333;BME280;48624;49.812;8.562;2022-11-15T13:27:48;99787.81;;;14.56;77.96
62333;BME280;48624;49.812;8.562;2022-11-15T13:30:20;99782.38;;;14.48;78.21
62333;BME280;48624;49.812;8.562;2022-11-15T13:32:46;99784.94;;;14.67;77.74
62333;BME280;48624;49.812;8.562;2022-11-15T13:35:20;99772.25;;;14.51;77.67
62333;BME280;48624;49.812;8.562;2022-11-15T13:37:46;99764.34;;;14.60;78.08
62333;BME280;48624;49.812;8.562;2022-11-15T13:42:42;99759.63;;;14.53;78.65
62333;BME280;48624;49.812;8.562;2022-11-15T13:45:13;99747.19;;;14.34;78.83
62333;BME280;48624;49.812;8.562;2022-11-15T13:47:39;99752.44;;;14.54;78.20
62333;BME280;48624;49.812;8.562;2022-11-15T13:50:05;99754.19;;;14.45;78.47
62333;BME280;48624;49.812;8.562;2022-11-15T13:52:33;99748.06;;;14.63;77.70
62333;BME280;48624;49.812;8.562;2022-11-15T13:55:04;99738.13;;;14.55;77.93
62333;BME280;48624;49.812;8.562;2022-11-15T13:57:53;99734.63;;;14.54;77.25
62333;BME280;48624;49.812;8.562;2022-11-15T14:05:42;99727.19;;;14.58;78.36
62333;BME280;48624;49.812;8.562;2022-11-15T14:10:45;99722.66;;;14.40;79.21
62333;BME280;48624;49.812;8.562;2022-11-15T14:13:30;99717.91;;;14.62;77.83
62333;BME280;48624;49.812;8.562;2022-11-15T14:16:12;99712.56;;;14.34;79.00